Decoded Metar for KNEW (NEW ORLEANS/LAKE in LA, USA) (IATA:NEW) | Meteo·Mobile Aviation Weather
aviador You're here:

KNEW Decoded Metar

NEW ORLEANS/LAKE in LA, USA
Report Time2020-01-29 15:18:00
UTC Time2020-01-29 15:52:46
Flight Rules ifr IFR
Wind280° at 09 kt
W.Decomp.*RWY 27: 8.9 kt HW 1.3 kt RCW
RWY 36: 1.3 kt HW 8.9 kt LCW
Visibility9999 m
Phenomena:N/A
Clouds:Broken 008 Hf
Overcast 012 Hf
Expected CloudBase > 800 ft AGL from Temp-Dew spread
Ceiling800 ft
Temp15°C (ISA 0)
Dew Point13°C (88% RH)
AAT12.7°C
QNH1010 hPa
Density Alt315 ft
Elevation10 ft
Report Wrong Elevation
Raw Report
KNEW 291518Z 28009KT 9SM BKN008 OVC012 15/13 A2983 RMK AO2 CIG
007V011 T01500133=

Extra information for KNEW:More info

Metar Taf Metar & Taf Last 4 Metars F.Rules Stats Wind Profile Meteogram Temp Stats Airport Information Weather charts Add Link Nearby VenuesMetar ALERT Operation Metar Decoded Social comments

AIRNAV info for KNEW